sensor_id;sensor_type;location;lat;lon;timestamp;P1;durP1;ratioP1;P2;durP2;ratioP2
1296;SDS011;641;48.492;9.184;2023-05-14T00:00:39;15.23;;;9.20;;
1296;SDS011;641;48.492;9.184;2023-05-14T00:03:05;18.17;;;9.87;;
1296;SDS011;641;48.492;9.184;2023-05-14T00:05:30;19.13;;;9.00;;
1296;SDS011;641;48.492;9.184;2023-05-14T00:07:56;14.60;;;9.67;;
1296;SDS011;641;48.492;9.184;2023-05-14T00:10:21;15.53;;;10.60;;
1296;SDS011;641;48.492;9.184;2023-05-14T00:12:47;16.20;;;10.20;;
1296;SDS011;641;48.492;9.184;2023-05-14T00:15:13;13.90;;;9.13;;
1296;SDS011;641;48.492;9.184;2023-05-14T00:17:38;13.73;;;8.77;;
1296;SDS011;641;48.492;9.184;2023-05-14T00:20:04;13.73;;;9.17;;
1296;SDS011;641;48.492;9.184;2023-05-14T00:22:35;14.30;;;9.47;;
1296;SDS011;641;48.492;9.184;2023-05-14T00:25:01;17.40;;;10.20;;
1296;SDS011;641;48.492;9.184;2023-05-14T00:27:27;14.23;;;8.60;;
1296;SDS011;641;48.492;9.184;2023-05-14T00:29:52;14.43;;;9.07;;
1296;SDS011;641;48.492;9.184;2023-05-14T00:32:18;14.20;;;9.73;;
1296;SDS011;641;48.492;9.184;2023-05-14T00:34:43;14.00;;;8.80;;
1296;SDS011;641;48.492;9.184;2023-05-14T00:37:09;16.67;;;9.13;;
1296;SDS011;641;48.492;9.184;2023-05-14T00:39:35;14.13;;;8.93;;
1296;SDS011;641;48.492;9.184;2023-05-14T00:42:00;15.60;;;9.70;;
1296;SDS011;641;48.492;9.184;2023-05-14T00:44:26;14.87;;;9.57;;
1296;SDS011;641;48.492;9.184;2023-05-14T00:46:51;16.47;;;10.33;;
1296;SDS011;641;48.492;9.184;2023-05-14T00:49:17;15.30;;;9.80;;
1296;SDS011;641;48.492;9.184;2023-05-14T00:51:43;16.10;;;10.43;;
1296;SDS011;641;48.492;9.184;2023-05-14T00:54:15;17.10;;;9.73;;
1296;SDS011;641;48.492;9.184;2023-05-14T00:56:44;16.13;;;9.93;;
1296;SDS011;641;48.492;9.184;2023-05-14T00:59:11;13.90;;;8.60;;
1296;SDS011;641;48.492;9.184;2023-05-14T01:01:37;15.77;;;9.13;;
1296;SDS011;641;48.492;9.184;2023-05-14T01:04:03;14.87;;;9.70;;
1296;SDS011;641;48.492;9.184;2023-05-14T01:09:31;13.73;;;9.07;;
1296;SDS011;641;48.492;9.184;2023-05-14T01:12:20;71.27;;;16.00;;
1296;SDS011;641;48.492;9.184;2023-05-14T01:17:52;16.00;;;9.40;;
1296;SDS011;641;48.492;9.184;2023-05-14T01:20:20;16.10;;;9.43;;
1296;SDS011;641;48.492;9.184;2023-05-14T01:22:46;16.20;;;9.50;;
1296;SDS011;641;48.492;9.184;2023-05-14T01:25:11;16.10;;;9.57;;
1296;SDS011;641;48.492;9.184;2023-05-14T01:27:39;147.57;;;33.57;;
1296;SDS011;641;48.492;9.184;2023-05-14T01:30:30;15.57;;;9.37;;
1296;SDS011;641;48.492;9.184;2023-05-14T01:33:24;16.50;;;9.40;;
1296;SDS011;641;48.492;9.184;2023-05-14T01:35:51;14.47;;;8.33;;
1296;SDS011;641;48.492;9.184;2023-05-14T01:38:22;14.00;;;8.17;;
1296;SDS011;641;48.492;9.184;2023-05-14T01:40:49;13.97;;;8.70;;
1296;SDS011;641;48.492;9.184;2023-05-14T01:43:16;14.80;;;9.93;;
1296;SDS011;641;48.492;9.184;2023-05-14T01:45:42;15.50;;;9.23;;
1296;SDS011;641;48.492;9.184;2023-05-14T01:48:08;19.10;;;11.60;;
1296;SDS011;641;48.492;9.184;2023-05-14T01:50:34;14.70;;;9.73;;
1296;SDS011;641;48.492;9.184;2023-05-14T01:52:59;14.73;;;9.50;;
1296;SDS011;641;48.492;9.184;2023-05-14T01:55:25;15.80;;;10.33;;
1296;SDS011;641;48.492;9.184;2023-05-14T01:57:51;15.07;;;9.10;;
1296;SDS011;641;48.492;9.184;2023-05-14T02:00:17;17.23;;;10.77;;
1296;SDS011;641;48.492;9.184;2023-05-14T02:02:43;18.70;;;10.87;;
1296;SDS011;641;48.492;9.184;2023-05-14T02:05:11;18.87;;;10.33;;
1296;SDS011;641;48.492;9.184;2023-05-14T02:07:37;17.17;;;11.10;;
1296;SDS011;641;48.492;9.184;2023-05-14T02:10:03;17.63;;;9.77;;
1296;SDS011;641;48.492;9.184;2023-05-14T02:12:29;16.30;;;11.13;;
1296;SDS011;641;48.492;9.184;2023-05-14T02:14:54;17.90;;;10.40;;
1296;SDS011;641;48.492;9.184;2023-05-14T02:17:20;15.00;;;10.03;;
1296;SDS011;641;48.492;9.184;2023-05-14T02:19:45;18.03;;;11.27;;
1296;SDS011;641;48.492;9.184;2023-05-14T02:22:11;17.33;;;11.07;;
1296;SDS011;641;48.492;9.184;2023-05-14T02:24:37;16.43;;;11.10;;
1296;SDS011;641;48.492;9.184;2023-05-14T02:27:03;15.67;;;11.00;;
1296;SDS011;641;48.492;9.184;2023-05-14T02:29:29;17.00;;;10.93;;
1296;SDS011;641;48.492;9.184;2023-05-14T02:31:54;15.83;;;10.33;;
1296;SDS011;641;48.492;9.184;2023-05-14T02:34:20;16.17;;;10.83;;
1296;SDS011;641;48.492;9.184;2023-05-14T02:36:46;16.23;;;9.83;;
1296;SDS011;641;48.492;9.184;2023-05-14T02:39:11;17.63;;;11.20;;
1296;SDS011;641;48.492;9.184;2023-05-14T02:41:37;17.60;;;10.93;;
1296;SDS011;641;48.492;9.184;2023-05-14T02:44:02;15.03;;;9.80;;
1296;SDS011;641;48.492;9.184;2023-05-14T02:46:29;15.67;;;10.27;;
1296;SDS011;641;48.492;9.184;2023-05-14T02:48:55;15.73;;;10.43;;
1296;SDS011;641;48.492;9.184;2023-05-14T02:51:20;15.67;;;10.63;;
1296;SDS011;641;48.492;9.184;2023-05-14T02:53:46;15.97;;;10.73;;
1296;SDS011;641;48.492;9.184;2023-05-14T02:56:12;16.53;;;10.40;;
1296;SDS011;641;48.492;9.184;2023-05-14T02:58:38;16.30;;;11.00;;
1296;SDS011;641;48.492;9.184;2023-05-14T03:01:03;16.07;;;10.73;;
1296;SDS011;641;48.492;9.184;2023-05-14T03:03:29;16.47;;;11.37;;
1296;SDS011;641;48.492;9.184;2023-05-14T03:05:55;18.07;;;11.43;;
1296;SDS011;641;48.492;9.184;2023-05-14T03:08:21;17.73;;;11.63;;
1296;SDS011;641;48.492;9.184;2023-05-14T03:10:46;16.83;;;11.40;;
1296;SDS011;641;48.492;9.184;2023-05-14T03:13:12;23.40;;;12.97;;
1296;SDS011;641;48.492;9.184;2023-05-14T03:15:41;19.20;;;13.20;;
1296;SDS011;641;48.492;9.184;2023-05-14T03:18:07;19.63;;;13.37;;
1296;SDS011;641;48.492;9.184;2023-05-14T03:20:33;21.53;;;13.37;;
1296;SDS011;641;48.492;9.184;2023-05-14T03:22:59;19.67;;;13.90;;
1296;SDS011;641;48.492;9.184;2023-05-14T03:25:24;18.70;;;13.77;;
1296;SDS011;641;48.492;9.184;2023-05-14T03:27:50;16.53;;;11.67;;
1296;SDS011;641;48.492;9.184;2023-05-14T03:30:16;18.67;;;11.80;;
1296;SDS011;641;48.492;9.184;2023-05-14T03:32:41;15.10;;;11.07;;
1296;SDS011;641;48.492;9.184;2023-05-14T03:35:07;16.53;;;10.50;;
1296;SDS011;641;48.492;9.184;2023-05-14T03:37:33;18.10;;;11.10;;
1296;SDS011;641;48.492;9.184;2023-05-14T03:39:58;17.87;;;11.93;;
1296;SDS011;641;48.492;9.184;2023-05-14T03:42:24;18.50;;;10.70;;
1296;SDS011;641;48.492;9.184;2023-05-14T03:44:49;17.47;;;11.20;;
1296;SDS011;641;48.492;9.184;2023-05-14T03:47:15;15.80;;;10.77;;
1296;SDS011;641;48.492;9.184;2023-05-14T03:49:40;14.33;;;9.43;;
1296;SDS011;641;48.492;9.184;2023-05-14T03:52:06;14.83;;;10.40;;
1296;SDS011;641;48.492;9.184;2023-05-14T03:54:32;15.83;;;10.17;;
1296;SDS011;641;48.492;9.184;2023-05-14T03:56:57;18.43;;;10.50;;
1296;SDS011;641;48.492;9.184;2023-05-14T03:59:23;16.87;;;10.20;;
1296;SDS011;641;48.492;9.184;2023-05-14T04:01:48;16.20;;;10.60;;
1296;SDS011;641;48.492;9.184;2023-05-14T04:04:14;17.63;;;11.53;;
1296;SDS011;641;48.492;9.184;2023-05-14T04:06:40;18.30;;;12.17;;
1296;SDS011;641;48.492;9.184;2023-05-14T04:09:05;17.53;;;12.13;;
1296;SDS011;641;48.492;9.184;2023-05-14T04:11:31;16.70;;;10.50;;
1296;SDS011;641;48.492;9.184;2023-05-14T04:13:56;18.23;;;12.27;;
1296;SDS011;641;48.492;9.184;2023-05-14T04:16:22;17.27;;;10.63;;
1296;SDS011;641;48.492;9.184;2023-05-14T04:18:47;18.27;;;11.30;;
1296;SDS011;641;48.492;9.184;2023-05-14T04:21:13;17.60;;;11.47;;
1296;SDS011;641;48.492;9.184;2023-05-14T04:23:38;19.20;;;11.00;;
1296;SDS011;641;48.492;9.184;2023-05-14T04:26:04;17.83;;;11.30;;
1296;SDS011;641;48.492;9.184;2023-05-14T04:28:30;18.23;;;11.80;;
1296;SDS011;641;48.492;9.184;2023-05-14T04:30:55;18.00;;;12.27;;
1296;SDS011;641;48.492;9.184;2023-05-14T04:33:22;15.97;;;10.30;;
1296;SDS011;641;48.492;9.184;2023-05-14T04:35:47;16.43;;;11.00;;
1296;SDS011;641;48.492;9.184;2023-05-14T04:38:13;15.93;;;10.50;;
1296;SDS011;641;48.492;9.184;2023-05-14T04:40:38;15.33;;;10.60;;
1296;SDS011;641;48.492;9.184;2023-05-14T04:43:05;19.57;;;13.30;;
1296;SDS011;641;48.492;9.184;2023-05-14T04:45:31;16.80;;;11.43;;
1296;SDS011;641;48.492;9.184;2023-05-14T04:47:57;19.20;;;13.13;;
1296;SDS011;641;48.492;9.184;2023-05-14T04:50:23;19.60;;;13.57;;
1296;SDS011;641;48.492;9.184;2023-05-14T04:52:48;19.57;;;14.30;;
1296;SDS011;641;48.492;9.184;2023-05-14T04:55:14;19.60;;;13.67;;
1296;SDS011;641;48.492;9.184;2023-05-14T04:57:40;18.37;;;12.87;;
1296;SDS011;641;48.492;9.184;2023-05-14T05:00:05;20.60;;;13.23;;
1296;SDS011;641;48.492;9.184;2023-05-14T05:02:36;17.90;;;12.60;;
1296;SDS011;641;48.492;9.184;2023-05-14T05:05:02;19.23;;;13.10;;
1296;SDS011;641;48.492;9.184;2023-05-14T05:07:28;19.80;;;13.43;;
1296;SDS011;641;48.492;9.184;2023-05-14T05:09:53;20.20;;;13.67;;
1296;SDS011;641;48.492;9.184;2023-05-14T05:12:19;18.40;;;13.20;;
1296;SDS011;641;48.492;9.184;2023-05-14T05:14:45;19.00;;;13.03;;
1296;SDS011;641;48.492;9.184;2023-05-14T05:17:11;20.63;;;14.00;;
1296;SDS011;641;48.492;9.184;2023-05-14T05:19:36;18.50;;;13.40;;
1296;SDS011;641;48.492;9.184;2023-05-14T05:22:03;16.63;;;11.70;;
1296;SDS011;641;48.492;9.184;2023-05-14T05:24:28;18.10;;;12.47;;
1296;SDS011;641;48.492;9.184;2023-05-14T05:26:54;18.57;;;12.90;;
1296;SDS011;641;48.492;9.184;2023-05-14T05:29:20;18.87;;;11.73;;
1296;SDS011;641;48.492;9.184;2023-05-14T05:31:47;19.83;;;13.10;;
1296;SDS011;641;48.492;9.184;2023-05-14T05:34:13;18.67;;;13.20;;
1296;SDS011;641;48.492;9.184;2023-05-14T05:36:38;18.03;;;12.13;;
1296;SDS011;641;48.492;9.184;2023-05-14T05:39:04;20.43;;;14.77;;
1296;SDS011;641;48.492;9.184;2023-05-14T05:41:30;18.90;;;13.07;;
1296;SDS011;641;48.492;9.184;2023-05-14T05:43:55;20.30;;;14.50;;
1296;SDS011;641;48.492;9.184;2023-05-14T05:46:21;20.10;;;14.00;;
1296;SDS011;641;48.492;9.184;2023-05-14T05:48:46;18.23;;;11.77;;
1296;SDS011;641;48.492;9.184;2023-05-14T05:51:12;18.37;;;13.17;;
1296;SDS011;641;48.492;9.184;2023-05-14T05:53:38;21.33;;;13.70;;
1296;SDS011;641;48.492;9.184;2023-05-14T05:56:03;19.13;;;13.30;;
1296;SDS011;641;48.492;9.184;2023-05-14T05:58:30;18.97;;;13.70;;
1296;SDS011;641;48.492;9.184;2023-05-14T06:00:55;19.80;;;13.57;;
1296;SDS011;641;48.492;9.184;2023-05-14T06:03:22;20.20;;;13.10;;
1296;SDS011;641;48.492;9.184;2023-05-14T06:05:47;18.53;;;12.80;;
1296;SDS011;641;48.492;9.184;2023-05-14T06:08:13;21.60;;;14.43;;
1296;SDS011;641;48.492;9.184;2023-05-14T06:10:38;18.97;;;12.97;;
1296;SDS011;641;48.492;9.184;2023-05-14T06:13:04;23.10;;;14.83;;
1296;SDS011;641;48.492;9.184;2023-05-14T06:15:30;20.97;;;13.00;;
1296;SDS011;641;48.492;9.184;2023-05-14T06:17:56;19.33;;;12.90;;
1296;SDS011;641;48.492;9.184;2023-05-14T06:20:21;18.37;;;12.57;;
1296;SDS011;641;48.492;9.184;2023-05-14T06:22:47;19.23;;;13.40;;
1296;SDS011;641;48.492;9.184;2023-05-14T06:25:13;19.20;;;12.43;;
1296;SDS011;641;48.492;9.184;2023-05-14T06:27:38;18.57;;;12.63;;
1296;SDS011;641;48.492;9.184;2023-05-14T06:30:04;20.27;;;12.90;;
1296;SDS011;641;48.492;9.184;2023-05-14T06:32:31;18.47;;;13.03;;
1296;SDS011;641;48.492;9.184;2023-05-14T06:34:56;16.53;;;10.60;;
1296;SDS011;641;48.492;9.184;2023-05-14T06:37:22;17.60;;;11.57;;
1296;SDS011;641;48.492;9.184;2023-05-14T06:39:47;17.03;;;11.33;;
1296;SDS011;641;48.492;9.184;2023-05-14T06:42:17;19.07;;;13.10;;
1296;SDS011;641;48.492;9.184;2023-05-14T06:44:43;17.30;;;11.20;;
1296;SDS011;641;48.492;9.184;2023-05-14T06:47:09;16.90;;;11.70;;
1296;SDS011;641;48.492;9.184;2023-05-14T06:49:35;19.63;;;13.23;;
1296;SDS011;641;48.492;9.184;2023-05-14T06:52:01;18.17;;;11.90;;
1296;SDS011;641;48.492;9.184;2023-05-14T06:54:27;18.40;;;11.63;;
1296;SDS011;641;48.492;9.184;2023-05-14T06:56:53;19.93;;;12.70;;
1296;SDS011;641;48.492;9.184;2023-05-14T06:59:18;19.10;;;13.00;;
1296;SDS011;641;48.492;9.184;2023-05-14T07:01:44;18.33;;;12.30;;
1296;SDS011;641;48.492;9.184;2023-05-14T07:04:10;18.73;;;12.03;;
1296;SDS011;641;48.492;9.184;2023-05-14T07:06:36;17.50;;;12.73;;
1296;SDS011;641;48.492;9.184;2023-05-14T07:09:01;17.83;;;10.93;;
1296;SDS011;641;48.492;9.184;2023-05-14T07:11:27;14.90;;;9.93;;
1296;SDS011;641;48.492;9.184;2023-05-14T07:13:53;16.00;;;11.00;;
1296;SDS011;641;48.492;9.184;2023-05-14T07:16:18;16.20;;;10.20;;
1296;SDS011;641;48.492;9.184;2023-05-14T07:18:44;16.30;;;10.80;;
1296;SDS011;641;48.492;9.184;2023-05-14T07:21:10;15.90;;;9.97;;
1296;SDS011;641;48.492;9.184;2023-05-14T07:23:35;15.90;;;9.83;;
1296;SDS011;641;48.492;9.184;2023-05-14T07:26:03;17.17;;;10.77;;
1296;SDS011;641;48.492;9.184;2023-05-14T07:28:29;14.53;;;9.50;;
1296;SDS011;641;48.492;9.184;2023-05-14T07:30:55;17.50;;;11.53;;
1296;SDS011;641;48.492;9.184;2023-05-14T07:33:21;15.83;;;10.47;;
1296;SDS011;641;48.492;9.184;2023-05-14T07:35:48;16.87;;;11.13;;
1296;SDS011;641;48.492;9.184;2023-05-14T07:38:14;17.50;;;11.00;;
1296;SDS011;641;48.492;9.184;2023-05-14T07:40:40;18.30;;;12.53;;
1296;SDS011;641;48.492;9.184;2023-05-14T07:43:08;18.83;;;12.10;;
1296;SDS011;641;48.492;9.184;2023-05-14T07:45:37;16.40;;;10.70;;
1296;SDS011;641;48.492;9.184;2023-05-14T07:48:03;17.50;;;11.17;;
1296;SDS011;641;48.492;9.184;2023-05-14T07:50:29;39.87;;;12.67;;
1296;SDS011;641;48.492;9.184;2023-05-14T07:52:55;16.60;;;10.87;;
1296;SDS011;641;48.492;9.184;2023-05-14T07:55:21;16.37;;;11.80;;
1296;SDS011;641;48.492;9.184;2023-05-14T07:57:47;15.20;;;10.50;;
1296;SDS011;641;48.492;9.184;2023-05-14T08:00:13;20.03;;;13.33;;
1296;SDS011;641;48.492;9.184;2023-05-14T08:02:40;14.60;;;9.93;;
1296;SDS011;641;48.492;9.184;2023-05-14T08:05:06;16.37;;;11.23;;
1296;SDS011;641;48.492;9.184;2023-05-14T08:07:33;19.67;;;11.60;;
1296;SDS011;641;48.492;9.184;2023-05-14T08:09:58;16.70;;;11.83;;
1296;SDS011;641;48.492;9.184;2023-05-14T08:12:24;18.30;;;12.50;;
1296;SDS011;641;48.492;9.184;2023-05-14T08:14:50;18.60;;;12.83;;
1296;SDS011;641;48.492;9.184;2023-05-14T08:17:16;19.90;;;12.33;;
1296;SDS011;641;48.492;9.184;2023-05-14T08:19:42;18.23;;;11.40;;
1296;SDS011;641;48.492;9.184;2023-05-14T08:22:07;15.30;;;11.00;;
1296;SDS011;641;48.492;9.184;2023-05-14T08:24:33;17.27;;;11.37;;
1296;SDS011;641;48.492;9.184;2023-05-14T08:26:58;16.70;;;11.43;;
1296;SDS011;641;48.492;9.184;2023-05-14T08:29:24;16.37;;;11.90;;
1296;SDS011;641;48.492;9.184;2023-05-14T08:31:50;18.10;;;12.30;;
1296;SDS011;641;48.492;9.184;2023-05-14T08:34:15;17.00;;;11.50;;
1296;SDS011;641;48.492;9.184;2023-05-14T08:36:41;17.90;;;11.67;;
1296;SDS011;641;48.492;9.184;2023-05-14T08:39:07;17.03;;;11.43;;
1296;SDS011;641;48.492;9.184;2023-05-14T08:41:32;18.40;;;12.63;;
1296;SDS011;641;48.492;9.184;2023-05-14T08:44:02;16.50;;;12.60;;
1296;SDS011;641;48.492;9.184;2023-05-14T08:46:50;17.10;;;11.20;;
1296;SDS011;641;48.492;9.184;2023-05-14T08:49:24;16.43;;;11.30;;
1296;SDS011;641;48.492;9.184;2023-05-14T08:52:07;16.50;;;11.30;;
1296;SDS011;641;48.492;9.184;2023-05-14T08:54:33;15.30;;;10.30;;
1296;SDS011;641;48.492;9.184;2023-05-14T08:56:59;18.00;;;12.50;;
1296;SDS011;641;48.492;9.184;2023-05-14T08:59:25;17.63;;;12.20;;
1296;SDS011;641;48.492;9.184;2023-05-14T09:01:51;18.67;;;12.20;;
1296;SDS011;641;48.492;9.184;2023-05-14T09:04:22;17.60;;;13.20;;
1296;SDS011;641;48.492;9.184;2023-05-14T09:06:49;18.13;;;13.10;;
1296;SDS011;641;48.492;9.184;2023-05-14T09:09:16;18.00;;;11.93;;
1296;SDS011;641;48.492;9.184;2023-05-14T09:11:45;17.30;;;11.43;;
1296;SDS011;641;48.492;9.184;2023-05-14T09:14:12;18.23;;;12.30;;
1296;SDS011;641;48.492;9.184;2023-05-14T09:16:37;16.20;;;11.90;;
1296;SDS011;641;48.492;9.184;2023-05-14T09:19:05;18.27;;;12.77;;
1296;SDS011;641;48.492;9.184;2023-05-14T09:21:31;17.00;;;12.00;;
1296;SDS011;641;48.492;9.184;2023-05-14T09:23:57;15.40;;;10.27;;
1296;SDS011;641;48.492;9.184;2023-05-14T09:26:23;18.30;;;11.67;;
1296;SDS011;641;48.492;9.184;2023-05-14T09:28:52;17.70;;;12.10;;
1296;SDS011;641;48.492;9.184;2023-05-14T09:31:19;16.73;;;11.73;;
1296;SDS011;641;48.492;9.184;2023-05-14T09:33:49;16.50;;;11.90;;
1296;SDS011;641;48.492;9.184;2023-05-14T09:36:15;19.50;;;11.87;;
1296;SDS011;641;48.492;9.184;2023-05-14T09:38:41;16.07;;;11.03;;
1296;SDS011;641;48.492;9.184;2023-05-14T09:41:07;19.73;;;11.20;;
1296;SDS011;641;48.492;9.184;2023-05-14T09:43:32;15.23;;;11.00;;
1296;SDS011;641;48.492;9.184;2023-05-14T09:45:58;17.50;;;12.30;;
1296;SDS011;641;48.492;9.184;2023-05-14T09:48:24;16.10;;;11.33;;
1296;SDS011;641;48.492;9.184;2023-05-14T09:50:49;18.13;;;11.47;;
1296;SDS011;641;48.492;9.184;2023-05-14T09:53:16;15.73;;;11.77;;
1296;SDS011;641;48.492;9.184;2023-05-14T09:55:42;16.40;;;10.80;;
1296;SDS011;641;48.492;9.184;2023-05-14T09:58:09;14.13;;;9.80;;
1296;SDS011;641;48.492;9.184;2023-05-14T10:00:35;15.30;;;10.30;;
1296;SDS011;641;48.492;9.184;2023-05-14T10:03:03;15.03;;;9.93;;
1296;SDS011;641;48.492;9.184;2023-05-14T10:05:32;14.63;;;9.67;;
1296;SDS011;641;48.492;9.184;2023-05-14T10:08:00;14.07;;;9.60;;
1296;SDS011;641;48.492;9.184;2023-05-14T10:10:32;14.97;;;10.90;;
1296;SDS011;641;48.492;9.184;2023-05-14T10:13:03;17.00;;;11.97;;
1296;SDS011;641;48.492;9.184;2023-05-14T10:18:12;14.13;;;9.57;;
1296;SDS011;641;48.492;9.184;2023-05-14T10:20:43;14.77;;;8.90;;
1296;SDS011;641;48.492;9.184;2023-05-14T10:23:12;15.23;;;9.13;;
1296;SDS011;641;48.492;9.184;2023-05-14T10:25:38;14.60;;;9.47;;
1296;SDS011;641;48.492;9.184;2023-05-14T10:28:04;14.80;;;10.47;;
1296;SDS011;641;48.492;9.184;2023-05-14T10:30:30;17.50;;;11.13;;
1296;SDS011;641;48.492;9.184;2023-05-14T10:33:06;16.20;;;9.87;;
1296;SDS011;641;48.492;9.184;2023-05-14T10:35:49;15.00;;;9.73;;
1296;SDS011;641;48.492;9.184;2023-05-14T10:38:22;16.27;;;10.93;;
1296;SDS011;641;48.492;9.184;2023-05-14T10:40:55;13.83;;;8.57;;
1296;SDS011;641;48.492;9.184;2023-05-14T10:43:25;12.80;;;8.30;;
1296;SDS011;641;48.492;9.184;2023-05-14T10:45:55;12.90;;;8.60;;
1296;SDS011;641;48.492;9.184;2023-05-14T10:48:24;13.77;;;9.27;;
1296;SDS011;641;48.492;9.184;2023-05-14T10:50:51;12.77;;;7.60;;
1296;SDS011;641;48.492;9.184;2023-05-14T10:53:17;12.67;;;8.37;;
1296;SDS011;641;48.492;9.184;2023-05-14T10:55:43;12.80;;;7.93;;
1296;SDS011;641;48.492;9.184;2023-05-14T10:58:10;13.40;;;8.23;;
1296;SDS011;641;48.492;9.184;2023-05-14T11:00:36;11.57;;;7.10;;
1296;SDS011;641;48.492;9.184;2023-05-14T11:03:03;13.47;;;9.10;;
1296;SDS011;641;48.492;9.184;2023-05-14T11:05:30;11.60;;;7.33;;
1296;SDS011;641;48.492;9.184;2023-05-14T11:07:56;11.50;;;7.10;;
1296;SDS011;641;48.492;9.184;2023-05-14T11:10:23;13.57;;;7.30;;
1296;SDS011;641;48.492;9.184;2023-05-14T11:12:55;12.83;;;7.70;;
1296;SDS011;641;48.492;9.184;2023-05-14T11:15:22;12.13;;;7.20;;
1296;SDS011;641;48.492;9.184;2023-05-14T11:17:50;14.17;;;8.23;;
1296;SDS011;641;48.492;9.184;2023-05-14T11:20:16;15.27;;;7.93;;
1296;SDS011;641;48.492;9.184;2023-05-14T11:22:43;13.40;;;8.53;;
1296;SDS011;641;48.492;9.184;2023-05-14T11:25:10;12.07;;;7.27;;
1296;SDS011;641;48.492;9.184;2023-05-14T11:27:40;10.93;;;6.37;;
1296;SDS011;641;48.492;9.184;2023-05-14T11:30:14;11.47;;;6.40;;
1296;SDS011;641;48.492;9.184;2023-05-14T11:32:41;11.20;;;6.43;;
1296;SDS011;641;48.492;9.184;2023-05-14T11:35:09;13.67;;;6.83;;
1296;SDS011;641;48.492;9.184;2023-05-14T11:37:35;11.83;;;6.60;;
1296;SDS011;641;48.492;9.184;2023-05-14T11:40:00;11.70;;;7.53;;
1296;SDS011;641;48.492;9.184;2023-05-14T11:42:26;11.43;;;6.33;;
1296;SDS011;641;48.492;9.184;2023-05-14T11:44:52;12.47;;;7.50;;
1296;SDS011;641;48.492;9.184;2023-05-14T11:47:18;12.77;;;7.10;;
1296;SDS011;641;48.492;9.184;2023-05-14T11:49:45;11.00;;;7.10;;
1296;SDS011;641;48.492;9.184;2023-05-14T11:52:11;10.33;;;6.10;;
1296;SDS011;641;48.492;9.184;2023-05-14T11:54:39;11.50;;;7.37;;
1296;SDS011;641;48.492;9.184;2023-05-14T11:57:07;12.67;;;7.33;;
1296;SDS011;641;48.492;9.184;2023-05-14T11:59:40;13.33;;;7.50;;
1296;SDS011;641;48.492;9.184;2023-05-14T12:02:09;14.60;;;6.77;;
1296;SDS011;641;48.492;9.184;2023-05-14T12:04:36;11.00;;;6.47;;
1296;SDS011;641;48.492;9.184;2023-05-14T12:07:10;11.20;;;6.27;;
1296;SDS011;641;48.492;9.184;2023-05-14T12:09:41;11.60;;;7.00;;
1296;SDS011;641;48.492;9.184;2023-05-14T12:12:13;10.20;;;5.63;;
1296;SDS011;641;48.492;9.184;2023-05-14T12:14:43;13.37;;;6.80;;
1296;SDS011;641;48.492;9.184;2023-05-14T12:17:13;10.43;;;6.43;;
1296;SDS011;641;48.492;9.184;2023-05-14T12:19:40;11.80;;;6.40;;
1296;SDS011;641;48.492;9.184;2023-05-14T12:22:07;10.23;;;6.30;;
1296;SDS011;641;48.492;9.184;2023-05-14T12:24:34;12.80;;;5.80;;
1296;SDS011;641;48.492;9.184;2023-05-14T12:27:00;10.83;;;6.47;;
1296;SDS011;641;48.492;9.184;2023-05-14T12:29:26;9.60;;;5.60;;
1296;SDS011;641;48.492;9.184;2023-05-14T12:31:52;9.80;;;5.23;;
1296;SDS011;641;48.492;9.184;2023-05-14T12:34:17;9.80;;;4.90;;
1296;SDS011;641;48.492;9.184;2023-05-14T12:36:43;11.80;;;5.90;;
1296;SDS011;641;48.492;9.184;2023-05-14T12:39:09;10.00;;;5.30;;
1296;SDS011;641;48.492;9.184;2023-05-14T12:41:36;12.20;;;7.10;;
1296;SDS011;641;48.492;9.184;2023-05-14T12:44:02;11.13;;;6.37;;
1296;SDS011;641;48.492;9.184;2023-05-14T12:46:28;11.60;;;6.20;;
1296;SDS011;641;48.492;9.184;2023-05-14T12:48:54;10.67;;;6.57;;
1296;SDS011;641;48.492;9.184;2023-05-14T12:51:21;11.30;;;7.23;;
1296;SDS011;641;48.492;9.184;2023-05-14T12:53:47;11.03;;;5.90;;
1296;SDS011;641;48.492;9.184;2023-05-14T12:56:13;10.90;;;6.70;;
1296;SDS011;641;48.492;9.184;2023-05-14T12:58:39;10.90;;;6.50;;
1296;SDS011;641;48.492;9.184;2023-05-14T13:01:05;9.90;;;5.37;;
1296;SDS011;641;48.492;9.184;2023-05-14T13:03:30;10.30;;;5.90;;
1296;SDS011;641;48.492;9.184;2023-05-14T13:05:56;11.30;;;5.70;;
1296;SDS011;641;48.492;9.184;2023-05-14T13:08:22;10.53;;;5.57;;
1296;SDS011;641;48.492;9.184;2023-05-14T13:10:50;11.13;;;6.20;;
1296;SDS011;641;48.492;9.184;2023-05-14T13:13:19;9.90;;;5.67;;
1296;SDS011;641;48.492;9.184;2023-05-14T13:15:45;14.00;;;6.03;;
1296;SDS011;641;48.492;9.184;2023-05-14T13:18:15;11.37;;;5.67;;
1296;SDS011;641;48.492;9.184;2023-05-14T13:20:41;10.57;;;5.57;;
1296;SDS011;641;48.492;9.184;2023-05-14T13:23:07;9.40;;;4.40;;
1296;SDS011;641;48.492;9.184;2023-05-14T13:25:33;14.43;;;5.40;;
1296;SDS011;641;48.492;9.184;2023-05-14T13:27:59;8.90;;;4.10;;
1296;SDS011;641;48.492;9.184;2023-05-14T13:30:25;9.60;;;4.70;;
1296;SDS011;641;48.492;9.184;2023-05-14T13:32:50;9.27;;;4.87;;
1296;SDS011;641;48.492;9.184;2023-05-14T13:35:16;12.33;;;5.37;;
1296;SDS011;641;48.492;9.184;2023-05-14T13:37:42;12.33;;;5.27;;
1296;SDS011;641;48.492;9.184;2023-05-14T13:40:08;10.33;;;4.50;;
1296;SDS011;641;48.492;9.184;2023-05-14T13:42:34;11.90;;;5.53;;
1296;SDS011;641;48.492;9.184;2023-05-14T13:45:01;9.27;;;4.93;;
1296;SDS011;641;48.492;9.184;2023-05-14T13:47:27;8.43;;;3.90;;
1296;SDS011;641;48.492;9.184;2023-05-14T13:49:52;10.53;;;4.53;;
1296;SDS011;641;48.492;9.184;2023-05-14T13:52:18;8.93;;;4.40;;
1296;SDS011;641;48.492;9.184;2023-05-14T13:54:44;9.63;;;4.47;;
1296;SDS011;641;48.492;9.184;2023-05-14T13:57:10;9.03;;;4.70;;
1296;SDS011;641;48.492;9.184;2023-05-14T13:59:35;9.90;;;4.20;;
1296;SDS011;641;48.492;9.184;2023-05-14T14:02:01;8.80;;;4.10;;
1296;SDS011;641;48.492;9.184;2023-05-14T14:04:27;8.83;;;4.20;;
1296;SDS011;641;48.492;9.184;2023-05-14T14:06:53;8.60;;;4.13;;
1296;SDS011;641;48.492;9.184;2023-05-14T14:09:19;8.80;;;3.37;;
1296;SDS011;641;48.492;9.184;2023-05-14T14:11:45;9.97;;;4.30;;
1296;SDS011;641;48.492;9.184;2023-05-14T14:14:11;9.40;;;4.23;;
1296;SDS011;641;48.492;9.184;2023-05-14T14:16:37;8.57;;;4.13;;
1296;SDS011;641;48.492;9.184;2023-05-14T14:19:02;10.20;;;4.20;;
1296;SDS011;641;48.492;9.184;2023-05-14T14:21:28;9.80;;;4.77;;
1296;SDS011;641;48.492;9.184;2023-05-14T14:23:54;11.30;;;5.07;;
1296;SDS011;641;48.492;9.184;2023-05-14T14:26:19;8.73;;;4.47;;
1296;SDS011;641;48.492;9.184;2023-05-14T14:28:45;9.30;;;4.33;;
1296;SDS011;641;48.492;9.184;2023-05-14T14:31:11;9.30;;;4.53;;
1296;SDS011;641;48.492;9.184;2023-05-14T14:33:37;10.87;;;5.30;;
1296;SDS011;641;48.492;9.184;2023-05-14T14:36:02;9.60;;;4.10;;
1296;SDS011;641;48.492;9.184;2023-05-14T14:38:28;9.73;;;3.90;;
1296;SDS011;641;48.492;9.184;2023-05-14T14:40:54;10.17;;;4.33;;
1296;SDS011;641;48.492;9.184;2023-05-14T14:43:19;7.93;;;3.20;;
1296;SDS011;641;48.492;9.184;2023-05-14T14:45:45;8.63;;;3.47;;
1296;SDS011;641;48.492;9.184;2023-05-14T14:48:21;9.13;;;3.90;;
1296;SDS011;641;48.492;9.184;2023-05-14T14:50:53;10.93;;;5.67;;
1296;SDS011;641;48.492;9.184;2023-05-14T14:53:20;8.83;;;4.23;;
1296;SDS011;641;48.492;9.184;2023-05-14T14:55:46;9.37;;;4.07;;
1296;SDS011;641;48.492;9.184;2023-05-14T14:58:12;10.70;;;3.87;;
1296;SDS011;641;48.492;9.184;2023-05-14T15:00:38;8.37;;;3.37;;
1296;SDS011;641;48.492;9.184;2023-05-14T15:03:04;7.80;;;3.27;;
1296;SDS011;641;48.492;9.184;2023-05-14T15:05:30;9.23;;;3.80;;
1296;SDS011;641;48.492;9.184;2023-05-14T15:07:56;9.03;;;3.60;;
1296;SDS011;641;48.492;9.184;2023-05-14T15:10:21;9.33;;;3.90;;
1296;SDS011;641;48.492;9.184;2023-05-14T15:12:47;9.93;;;4.23;;
1296;SDS011;641;48.492;9.184;2023-05-14T15:15:13;9.40;;;4.30;;